sensor_id;sensor_type;location;lat;lon;timestamp;P1;durP1;ratioP1;P2;durP2;ratioP2
55314;SDS011;41619;42.816;23.226;2022-12-29T00:01:42;29.50;;;18.27;;
55314;SDS011;41619;42.816;23.226;2022-12-29T00:04:09;31.67;;;19.73;;
55314;SDS011;41619;42.816;23.226;2022-12-29T00:06:38;29.60;;;18.77;;
55314;SDS011;41619;42.816;23.226;2022-12-29T00:09:03;30.23;;;18.13;;
55314;SDS011;41619;42.816;23.226;2022-12-29T00:11:29;29.17;;;19.20;;
55314;SDS011;41619;42.816;23.226;2022-12-29T00:13:54;28.42;;;18.25;;
55314;SDS011;41619;42.816;23.226;2022-12-29T00:16:40;28.25;;;18.95;;
55314;SDS011;41619;42.816;23.226;2022-12-29T00:19:07;34.60;;;21.23;;
55314;SDS011;41619;42.816;23.226;2022-12-29T00:21:53;34.33;;;18.92;;
55314;SDS011;41619;42.816;23.226;2022-12-29T00:24:37;31.38;;;18.98;;
55314;SDS011;41619;42.816;23.226;2022-12-29T00:27:21;35.05;;;17.98;;
55314;SDS011;41619;42.816;23.226;2022-12-29T00:30:09;32.42;;;19.20;;
55314;SDS011;41619;42.816;23.226;2022-12-29T00:32:54;35.30;;;18.73;;
55314;SDS011;41619;42.816;23.226;2022-12-29T00:35:39;31.10;;;18.35;;
55314;SDS011;41619;42.816;23.226;2022-12-29T00:38:09;23.75;;;16.08;;
55314;SDS011;41619;42.816;23.226;2022-12-29T00:40:54;29.95;;;16.58;;
55314;SDS011;41619;42.816;23.226;2022-12-29T00:43:37;26.70;;;16.38;;
55314;SDS011;41619;42.816;23.226;2022-12-29T00:46:21;26.33;;;15.48;;
55314;SDS011;41619;42.816;23.226;2022-12-29T00:48:47;27.10;;;15.65;;
55314;SDS011;41619;42.816;23.226;2022-12-29T00:51:31;24.60;;;16.08;;
55314;SDS011;41619;42.816;23.226;2022-12-29T00:53:56;27.25;;;16.35;;
55314;SDS011;41619;42.816;23.226;2022-12-29T00:56:21;24.10;;;16.25;;
55314;SDS011;41619;42.816;23.226;2022-12-29T00:58:47;26.40;;;15.65;;
55314;SDS011;41619;42.816;23.226;2022-12-29T01:01:12;24.52;;;15.98;;
55314;SDS011;41619;42.816;23.226;2022-12-29T01:03:37;27.70;;;15.15;;
55314;SDS011;41619;42.816;23.226;2022-12-29T01:06:04;27.17;;;16.65;;
55314;SDS011;41619;42.816;23.226;2022-12-29T01:08:30;25.85;;;16.48;;
55314;SDS011;41619;42.816;23.226;2022-12-29T01:11:00;26.10;;;16.38;;
55314;SDS011;41619;42.816;23.226;2022-12-29T01:13:27;27.52;;;17.02;;
55314;SDS011;41619;42.816;23.226;2022-12-29T01:15:53;28.25;;;16.92;;
55314;SDS011;41619;42.816;23.226;2022-12-29T01:18:19;28.20;;;16.70;;
55314;SDS011;41619;42.816;23.226;2022-12-29T01:20:46;26.77;;;15.77;;
55314;SDS011;41619;42.816;23.226;2022-12-29T01:23:12;26.73;;;17.20;;
55314;SDS011;41619;42.816;23.226;2022-12-29T01:25:37;24.50;;;16.13;;
55314;SDS011;41619;42.816;23.226;2022-12-29T01:28:03;28.17;;;16.45;;
55314;SDS011;41619;42.816;23.226;2022-12-29T01:30:28;25.73;;;16.23;;
55314;SDS011;41619;42.816;23.226;2022-12-29T01:32:53;27.27;;;16.85;;
55314;SDS011;41619;42.816;23.226;2022-12-29T01:35:19;30.70;;;16.90;;
55314;SDS011;41619;42.816;23.226;2022-12-29T01:37:44;30.98;;;17.08;;
55314;SDS011;41619;42.816;23.226;2022-12-29T01:40:10;27.75;;;17.65;;
55314;SDS011;41619;42.816;23.226;2022-12-29T01:42:36;27.10;;;17.63;;
55314;SDS011;41619;42.816;23.226;2022-12-29T01:45:02;27.52;;;17.05;;
55314;SDS011;41619;42.816;23.226;2022-12-29T01:47:47;31.65;;;18.13;;
55314;SDS011;41619;42.816;23.226;2022-12-29T01:50:20;29.25;;;18.45;;
55314;SDS011;41619;42.816;23.226;2022-12-29T01:52:50;32.40;;;18.10;;
55314;SDS011;41619;42.816;23.226;2022-12-29T01:55:23;27.02;;;16.30;;
55314;SDS011;41619;42.816;23.226;2022-12-29T01:57:51;34.63;;;19.08;;
55314;SDS011;41619;42.816;23.226;2022-12-29T02:00:21;35.83;;;19.88;;
55314;SDS011;41619;42.816;23.226;2022-12-29T02:02:50;32.45;;;18.50;;
55314;SDS011;41619;42.816;23.226;2022-12-29T02:05:25;29.10;;;17.77;;
55314;SDS011;41619;42.816;23.226;2022-12-29T02:07:57;28.67;;;18.20;;
55314;SDS011;41619;42.816;23.226;2022-12-29T02:10:23;36.33;;;19.50;;
55314;SDS011;41619;42.816;23.226;2022-12-29T02:12:52;31.65;;;18.75;;
55314;SDS011;41619;42.816;23.226;2022-12-29T02:15:18;29.27;;;18.08;;
55314;SDS011;41619;42.816;23.226;2022-12-29T02:20:37;32.20;;;17.25;;
55314;SDS011;41619;42.816;23.226;2022-12-29T02:23:32;32.90;;;17.95;;
55314;SDS011;41619;42.816;23.226;2022-12-29T02:29:04;37.00;;;19.98;;
55314;SDS011;41619;42.816;23.226;2022-12-29T02:31:58;29.98;;;16.60;;
55314;SDS011;41619;42.816;23.226;2022-12-29T02:34:33;30.17;;;17.05;;
55314;SDS011;41619;42.816;23.226;2022-12-29T02:42:47;36.83;;;18.10;;
55314;SDS011;41619;42.816;23.226;2022-12-29T02:50:51;37.67;;;19.30;;
55314;SDS011;41619;42.816;23.226;2022-12-29T02:53:23;31.02;;;18.27;;
55314;SDS011;41619;42.816;23.226;2022-12-29T02:56:08;31.77;;;18.70;;
55314;SDS011;41619;42.816;23.226;2022-12-29T02:58:34;28.80;;;19.42;;
55314;SDS011;41619;42.816;23.226;2022-12-29T03:01:03;33.47;;;18.10;;
55314;SDS011;41619;42.816;23.226;2022-12-29T03:09:10;37.65;;;19.83;;
55314;SDS011;41619;42.816;23.226;2022-12-29T03:11:58;29.88;;;17.77;;
55314;SDS011;41619;42.816;23.226;2022-12-29T03:14:52;31.17;;;18.20;;
55314;SDS011;41619;42.816;23.226;2022-12-29T03:17:57;34.15;;;19.75;;
55314;SDS011;41619;42.816;23.226;2022-12-29T03:20:38;32.20;;;17.77;;
55314;SDS011;41619;42.816;23.226;2022-12-29T03:23:08;34.97;;;18.27;;
55314;SDS011;41619;42.816;23.226;2022-12-29T03:25:37;30.55;;;18.23;;
55314;SDS011;41619;42.816;23.226;2022-12-29T03:28:09;29.17;;;17.77;;
55314;SDS011;41619;42.816;23.226;2022-12-29T03:30:39;27.67;;;17.00;;
55314;SDS011;41619;42.816;23.226;2022-12-29T03:33:10;30.67;;;17.90;;
55314;SDS011;41619;42.816;23.226;2022-12-29T03:35:38;30.42;;;17.55;;
55314;SDS011;41619;42.816;23.226;2022-12-29T03:40:45;29.17;;;17.23;;
55314;SDS011;41619;42.816;23.226;2022-12-29T03:43:15;33.22;;;17.60;;
55314;SDS011;41619;42.816;23.226;2022-12-29T03:45:42;28.95;;;15.82;;
55314;SDS011;41619;42.816;23.226;2022-12-29T03:48:07;25.48;;;16.00;;
55314;SDS011;41619;42.816;23.226;2022-12-29T03:50:32;28.10;;;17.50;;
55314;SDS011;41619;42.816;23.226;2022-12-29T03:52:58;29.33;;;17.33;;
55314;SDS011;41619;42.816;23.226;2022-12-29T03:55:23;28.33;;;16.90;;
55314;SDS011;41619;42.816;23.226;2022-12-29T03:57:49;31.38;;;17.50;;
55314;SDS011;41619;42.816;23.226;2022-12-29T04:00:14;30.42;;;17.42;;
55314;SDS011;41619;42.816;23.226;2022-12-29T04:02:40;33.58;;;17.60;;
55314;SDS011;41619;42.816;23.226;2022-12-29T04:05:06;26.60;;;16.05;;
55314;SDS011;41619;42.816;23.226;2022-12-29T04:07:31;34.00;;;18.35;;
55314;SDS011;41619;42.816;23.226;2022-12-29T04:09:57;31.33;;;17.13;;
55314;SDS011;41619;42.816;23.226;2022-12-29T04:12:22;27.85;;;16.95;;
55314;SDS011;41619;42.816;23.226;2022-12-29T04:14:48;31.95;;;18.20;;
55314;SDS011;41619;42.816;23.226;2022-12-29T04:17:13;29.88;;;16.98;;
55314;SDS011;41619;42.816;23.226;2022-12-29T04:19:38;26.98;;;16.48;;
55314;SDS011;41619;42.816;23.226;2022-12-29T04:22:04;30.33;;;17.40;;
55314;SDS011;41619;42.816;23.226;2022-12-29T04:24:29;30.63;;;19.02;;
55314;SDS011;41619;42.816;23.226;2022-12-29T04:26:55;32.40;;;18.25;;
55314;SDS011;41619;42.816;23.226;2022-12-29T04:29:20;28.42;;;18.08;;
55314;SDS011;41619;42.816;23.226;2022-12-29T04:31:45;36.92;;;19.65;;
55314;SDS011;41619;42.816;23.226;2022-12-29T04:34:11;32.13;;;18.70;;
55314;SDS011;41619;42.816;23.226;2022-12-29T04:36:36;31.35;;;18.60;;
55314;SDS011;41619;42.816;23.226;2022-12-29T04:39:02;29.05;;;18.13;;
55314;SDS011;41619;42.816;23.226;2022-12-29T04:41:30;33.45;;;19.40;;
55314;SDS011;41619;42.816;23.226;2022-12-29T04:43:55;33.00;;;18.23;;
55314;SDS011;41619;42.816;23.226;2022-12-29T04:46:21;28.65;;;19.30;;
55314;SDS011;41619;42.816;23.226;2022-12-29T04:48:46;34.35;;;19.02;;
55314;SDS011;41619;42.816;23.226;2022-12-29T04:51:11;32.78;;;19.52;;
55314;SDS011;41619;42.816;23.226;2022-12-29T04:53:37;35.20;;;19.35;;
55314;SDS011;41619;42.816;23.226;2022-12-29T04:56:02;37.25;;;19.90;;
55314;SDS011;41619;42.816;23.226;2022-12-29T04:58:27;36.67;;;20.80;;
55314;SDS011;41619;42.816;23.226;2022-12-29T05:00:53;37.20;;;22.35;;
55314;SDS011;41619;42.816;23.226;2022-12-29T05:03:18;37.22;;;19.10;;
55314;SDS011;41619;42.816;23.226;2022-12-29T05:05:44;33.88;;;19.27;;
55314;SDS011;41619;42.816;23.226;2022-12-29T05:08:09;38.45;;;20.60;;
55314;SDS011;41619;42.816;23.226;2022-12-29T05:10:34;39.10;;;19.35;;
55314;SDS011;41619;42.816;23.226;2022-12-29T05:13:00;36.45;;;19.65;;
55314;SDS011;41619;42.816;23.226;2022-12-29T05:15:25;38.33;;;22.20;;
55314;SDS011;41619;42.816;23.226;2022-12-29T05:17:51;43.00;;;23.33;;
55314;SDS011;41619;42.816;23.226;2022-12-29T05:20:17;46.65;;;24.65;;
55314;SDS011;41619;42.816;23.226;2022-12-29T05:22:42;48.30;;;25.27;;
55314;SDS011;41619;42.816;23.226;2022-12-29T05:25:08;60.08;;;28.63;;
55314;SDS011;41619;42.816;23.226;2022-12-29T05:27:34;37.78;;;21.80;;
55314;SDS011;41619;42.816;23.226;2022-12-29T05:29:59;35.75;;;21.98;;
55314;SDS011;41619;42.816;23.226;2022-12-29T05:32:25;40.78;;;23.20;;
55314;SDS011;41619;42.816;23.226;2022-12-29T05:34:50;48.00;;;24.55;;
55314;SDS011;41619;42.816;23.226;2022-12-29T05:37:16;42.05;;;23.92;;
55314;SDS011;41619;42.816;23.226;2022-12-29T05:39:41;39.67;;;22.42;;
55314;SDS011;41619;42.816;23.226;2022-12-29T05:42:06;51.47;;;26.60;;
55314;SDS011;41619;42.816;23.226;2022-12-29T05:44:32;48.55;;;25.98;;
55314;SDS011;41619;42.816;23.226;2022-12-29T05:46:57;45.20;;;24.10;;
55314;SDS011;41619;42.816;23.226;2022-12-29T05:49:23;46.15;;;23.80;;
55314;SDS011;41619;42.816;23.226;2022-12-29T05:51:48;44.50;;;24.08;;
55314;SDS011;41619;42.816;23.226;2022-12-29T05:54:13;43.25;;;22.90;;
55314;SDS011;41619;42.816;23.226;2022-12-29T05:56:39;39.13;;;23.42;;
55314;SDS011;41619;42.816;23.226;2022-12-29T05:59:04;33.67;;;20.20;;
55314;SDS011;41619;42.816;23.226;2022-12-29T06:01:29;33.83;;;20.33;;
55314;SDS011;41619;42.816;23.226;2022-12-29T06:03:55;34.03;;;19.70;;
55314;SDS011;41619;42.816;23.226;2022-12-29T06:06:20;47.58;;;35.65;;
55314;SDS011;41619;42.816;23.226;2022-12-29T06:08:46;35.58;;;20.70;;
55314;SDS011;41619;42.816;23.226;2022-12-29T06:11:11;31.00;;;20.65;;
55314;SDS011;41619;42.816;23.226;2022-12-29T06:13:36;33.58;;;20.38;;
55314;SDS011;41619;42.816;23.226;2022-12-29T06:16:02;32.28;;;19.92;;
55314;SDS011;41619;42.816;23.226;2022-12-29T06:18:28;35.38;;;22.00;;
55314;SDS011;41619;42.816;23.226;2022-12-29T06:20:53;43.45;;;21.00;;
55314;SDS011;41619;42.816;23.226;2022-12-29T06:23:19;33.28;;;19.83;;
55314;SDS011;41619;42.816;23.226;2022-12-29T06:25:44;40.25;;;20.52;;
55314;SDS011;41619;42.816;23.226;2022-12-29T06:28:13;36.20;;;20.05;;
55314;SDS011;41619;42.816;23.226;2022-12-29T06:30:38;33.72;;;21.05;;
55314;SDS011;41619;42.816;23.226;2022-12-29T06:33:04;34.45;;;20.88;;
55314;SDS011;41619;42.816;23.226;2022-12-29T06:35:30;35.97;;;21.42;;
55314;SDS011;41619;42.816;23.226;2022-12-29T06:37:55;42.70;;;23.55;;
55314;SDS011;41619;42.816;23.226;2022-12-29T06:40:21;36.60;;;22.58;;
55314;SDS011;41619;42.816;23.226;2022-12-29T06:42:46;34.90;;;22.17;;
55314;SDS011;41619;42.816;23.226;2022-12-29T06:45:12;31.30;;;20.15;;
55314;SDS011;41619;42.816;23.226;2022-12-29T06:47:37;34.22;;;20.60;;
55314;SDS011;41619;42.816;23.226;2022-12-29T06:50:02;39.45;;;20.15;;
55314;SDS011;41619;42.816;23.226;2022-12-29T06:52:29;33.05;;;20.08;;
55314;SDS011;41619;42.816;23.226;2022-12-29T06:54:54;32.42;;;19.70;;
55314;SDS011;41619;42.816;23.226;2022-12-29T06:57:20;42.72;;;27.05;;
55314;SDS011;41619;42.816;23.226;2022-12-29T06:59:46;39.63;;;23.63;;
55314;SDS011;41619;42.816;23.226;2022-12-29T07:02:12;36.83;;;19.85;;
55314;SDS011;41619;42.816;23.226;2022-12-29T07:04:39;36.70;;;23.95;;
55314;SDS011;41619;42.816;23.226;2022-12-29T07:07:05;35.28;;;20.42;;
55314;SDS011;41619;42.816;23.226;2022-12-29T07:09:30;31.77;;;20.80;;
55314;SDS011;41619;42.816;23.226;2022-12-29T07:11:56;40.25;;;25.42;;
55314;SDS011;41619;42.816;23.226;2022-12-29T07:14:22;37.65;;;23.90;;
55314;SDS011;41619;42.816;23.226;2022-12-29T07:16:47;40.83;;;23.55;;
55314;SDS011;41619;42.816;23.226;2022-12-29T07:19:13;38.05;;;23.35;;
55314;SDS011;41619;42.816;23.226;2022-12-29T07:21:38;34.00;;;20.77;;
55314;SDS011;41619;42.816;23.226;2022-12-29T07:24:03;36.22;;;22.95;;
55314;SDS011;41619;42.816;23.226;2022-12-29T07:26:29;36.50;;;20.58;;
55314;SDS011;41619;42.816;23.226;2022-12-29T07:28:54;39.78;;;25.33;;
55314;SDS011;41619;42.816;23.226;2022-12-29T07:31:21;38.28;;;25.20;;
55314;SDS011;41619;42.816;23.226;2022-12-29T07:33:48;43.15;;;28.98;;
55314;SDS011;41619;42.816;23.226;2022-12-29T07:36:14;38.08;;;22.83;;
55314;SDS011;41619;42.816;23.226;2022-12-29T07:38:40;180.80;;;77.35;;
55314;SDS011;41619;42.816;23.226;2022-12-29T07:41:07;59.72;;;31.60;;
55314;SDS011;41619;42.816;23.226;2022-12-29T07:43:32;64.78;;;36.33;;
55314;SDS011;41619;42.816;23.226;2022-12-29T07:45:58;51.63;;;30.67;;
55314;SDS011;41619;42.816;23.226;2022-12-29T07:48:23;40.92;;;23.48;;
55314;SDS011;41619;42.816;23.226;2022-12-29T07:50:48;37.55;;;21.73;;
55314;SDS011;41619;42.816;23.226;2022-12-29T07:53:14;35.35;;;20.88;;
55314;SDS011;41619;42.816;23.226;2022-12-29T07:55:39;40.17;;;24.13;;
55314;SDS011;41619;42.816;23.226;2022-12-29T07:58:05;50.05;;;27.20;;
55314;SDS011;41619;42.816;23.226;2022-12-29T08:00:31;41.35;;;24.40;;
55314;SDS011;41619;42.816;23.226;2022-12-29T08:02:57;39.58;;;21.80;;
55314;SDS011;41619;42.816;23.226;2022-12-29T08:05:22;33.50;;;21.25;;
55314;SDS011;41619;42.816;23.226;2022-12-29T08:07:47;33.17;;;20.80;;
55314;SDS011;41619;42.816;23.226;2022-12-29T08:10:13;37.10;;;21.40;;
55314;SDS011;41619;42.816;23.226;2022-12-29T08:12:39;32.75;;;20.50;;
55314;SDS011;41619;42.816;23.226;2022-12-29T08:15:05;40.88;;;22.73;;
55314;SDS011;41619;42.816;23.226;2022-12-29T08:17:32;37.38;;;21.35;;
55314;SDS011;41619;42.816;23.226;2022-12-29T08:19:57;40.25;;;22.55;;
55314;SDS011;41619;42.816;23.226;2022-12-29T08:22:23;37.35;;;21.25;;
55314;SDS011;41619;42.816;23.226;2022-12-29T08:24:48;35.78;;;21.58;;
55314;SDS011;41619;42.816;23.226;2022-12-29T08:27:14;38.38;;;22.10;;
55314;SDS011;41619;42.816;23.226;2022-12-29T08:29:39;37.80;;;21.95;;
55314;SDS011;41619;42.816;23.226;2022-12-29T08:32:05;34.30;;;21.60;;
55314;SDS011;41619;42.816;23.226;2022-12-29T08:34:31;26.48;;;17.10;;
55314;SDS011;41619;42.816;23.226;2022-12-29T08:36:57;33.95;;;20.27;;
55314;SDS011;41619;42.816;23.226;2022-12-29T08:39:22;33.67;;;19.83;;
55314;SDS011;41619;42.816;23.226;2022-12-29T08:41:48;33.13;;;20.30;;
55314;SDS011;41619;42.816;23.226;2022-12-29T08:44:13;33.13;;;19.67;;
55314;SDS011;41619;42.816;23.226;2022-12-29T08:46:38;35.92;;;22.98;;
55314;SDS011;41619;42.816;23.226;2022-12-29T08:49:04;39.33;;;24.13;;
55314;SDS011;41619;42.816;23.226;2022-12-29T08:51:29;33.88;;;20.75;;
55314;SDS011;41619;42.816;23.226;2022-12-29T08:53:55;34.92;;;20.50;;
55314;SDS011;41619;42.816;23.226;2022-12-29T08:56:20;38.85;;;18.83;;
55314;SDS011;41619;42.816;23.226;2022-12-29T08:58:47;35.15;;;19.73;;
55314;SDS011;41619;42.816;23.226;2022-12-29T09:01:12;36.00;;;19.95;;
55314;SDS011;41619;42.816;23.226;2022-12-29T09:03:37;35.92;;;21.50;;
55314;SDS011;41619;42.816;23.226;2022-12-29T09:06:03;32.78;;;20.85;;
55314;SDS011;41619;42.816;23.226;2022-12-29T09:08:28;36.40;;;22.45;;
55314;SDS011;41619;42.816;23.226;2022-12-29T09:10:54;32.08;;;20.77;;
55314;SDS011;41619;42.816;23.226;2022-12-29T09:13:19;35.60;;;21.45;;
55314;SDS011;41619;42.816;23.226;2022-12-29T09:15:45;36.88;;;23.05;;
55314;SDS011;41619;42.816;23.226;2022-12-29T09:18:10;35.70;;;21.55;;
55314;SDS011;41619;42.816;23.226;2022-12-29T09:20:37;33.53;;;21.75;;
55314;SDS011;41619;42.816;23.226;2022-12-29T09:23:02;33.58;;;21.20;;
55314;SDS011;41619;42.816;23.226;2022-12-29T09:25:28;31.95;;;19.67;;
55314;SDS011;41619;42.816;23.226;2022-12-29T09:27:54;34.33;;;20.30;;
55314;SDS011;41619;42.816;23.226;2022-12-29T09:30:20;116.65;;;46.03;;
55314;SDS011;41619;42.816;23.226;2022-12-29T09:32:47;38.20;;;22.83;;
55314;SDS011;41619;42.816;23.226;2022-12-29T09:35:13;39.97;;;22.27;;
55314;SDS011;41619;42.816;23.226;2022-12-29T09:37:39;35.70;;;23.35;;
55314;SDS011;41619;42.816;23.226;2022-12-29T09:40:05;38.15;;;23.15;;
55314;SDS011;41619;42.816;23.226;2022-12-29T09:42:38;41.10;;;25.23;;
55314;SDS011;41619;42.816;23.226;2022-12-29T09:45:20;41.80;;;24.98;;
55314;SDS011;41619;42.816;23.226;2022-12-29T09:48:03;45.28;;;23.50;;
55314;SDS011;41619;42.816;23.226;2022-12-29T09:50:37;44.70;;;27.52;;
55314;SDS011;41619;42.816;23.226;2022-12-29T09:55:45;47.25;;;27.63;;
55314;SDS011;41619;42.816;23.226;2022-12-29T09:58:16;56.25;;;31.10;;
55314;SDS011;41619;42.816;23.226;2022-12-29T10:01:05;58.70;;;31.65;;
55314;SDS011;41619;42.816;23.226;2022-12-29T10:14:46;48.13;;;25.88;;
55314;SDS011;41619;42.816;23.226;2022-12-29T10:17:32;50.63;;;28.73;;
55314;SDS011;41619;42.816;23.226;2022-12-29T10:25:21;46.85;;;26.85;;
55314;SDS011;41619;42.816;23.226;2022-12-29T10:27:50;43.13;;;25.08;;
55314;SDS011;41619;42.816;23.226;2022-12-29T10:35:18;43.50;;;24.92;;
55314;SDS011;41619;42.816;23.226;2022-12-29T10:37:49;56.85;;;30.13;;
55314;SDS011;41619;42.816;23.226;2022-12-29T10:40:25;56.58;;;31.00;;
55314;SDS011;41619;42.816;23.226;2022-12-29T10:42:57;66.68;;;38.38;;
55314;SDS011;41619;42.816;23.226;2022-12-29T10:45:24;83.45;;;45.95;;
55314;SDS011;41619;42.816;23.226;2022-12-29T10:47:55;55.97;;;30.88;;
55314;SDS011;41619;42.816;23.226;2022-12-29T10:50:24;58.88;;;30.75;;
55314;SDS011;41619;42.816;23.226;2022-12-29T10:52:50;55.80;;;30.95;;
55314;SDS011;41619;42.816;23.226;2022-12-29T10:55:17;48.42;;;29.02;;
55314;SDS011;41619;42.816;23.226;2022-12-29T10:57:46;60.97;;;32.00;;
55314;SDS011;41619;42.816;23.226;2022-12-29T11:00:15;56.30;;;31.98;;
55314;SDS011;41619;42.816;23.226;2022-12-29T11:05:34;57.28;;;30.90;;
55314;SDS011;41619;42.816;23.226;2022-12-29T11:08:03;59.78;;;29.77;;
55314;SDS011;41619;42.816;23.226;2022-12-29T11:10:40;51.45;;;28.50;;
55314;SDS011;41619;42.816;23.226;2022-12-29T11:13:15;52.08;;;26.25;;
55314;SDS011;41619;42.816;23.226;2022-12-29T11:15:46;57.95;;;29.45;;
55314;SDS011;41619;42.816;23.226;2022-12-29T11:18:56;43.53;;;25.17;;
55314;SDS011;41619;42.816;23.226;2022-12-29T11:21:03;45.90;;;24.85;;
55314;SDS011;41619;42.816;23.226;2022-12-29T11:23:55;43.30;;;25.20;;
55314;SDS011;41619;42.816;23.226;2022-12-29T11:26:23;51.28;;;26.95;;
55314;SDS011;41619;42.816;23.226;2022-12-29T11:31:54;44.70;;;25.98;;
55314;SDS011;41619;42.816;23.226;2022-12-29T11:34:22;42.20;;;24.08;;
55314;SDS011;41619;42.816;23.226;2022-12-29T11:36:50;43.13;;;23.45;;
55314;SDS011;41619;42.816;23.226;2022-12-29T11:39:26;41.47;;;24.55;;
55314;SDS011;41619;42.816;23.226;2022-12-29T11:41:54;38.42;;;22.75;;
55314;SDS011;41619;42.816;23.226;2022-12-29T11:44:20;40.13;;;23.48;;
55314;SDS011;41619;42.816;23.226;2022-12-29T11:46:46;44.22;;;24.33;;
55314;SDS011;41619;42.816;23.226;2022-12-29T11:49:19;66.53;;;37.70;;
55314;SDS011;41619;42.816;23.226;2022-12-29T11:51:47;50.22;;;26.55;;
55314;SDS011;41619;42.816;23.226;2022-12-29T11:54:25;45.47;;;26.45;;
55314;SDS011;41619;42.816;23.226;2022-12-29T11:56:56;40.60;;;22.77;;
55314;SDS011;41619;42.816;23.226;2022-12-29T12:02:03;40.08;;;24.90;;
55314;SDS011;41619;42.816;23.226;2022-12-29T12:04:42;39.50;;;23.80;;
55314;SDS011;41619;42.816;23.226;2022-12-29T12:07:11;43.85;;;24.27;;
55314;SDS011;41619;42.816;23.226;2022-12-29T12:09:43;46.08;;;25.83;;
55314;SDS011;41619;42.816;23.226;2022-12-29T12:12:28;40.50;;;24.25;;
55314;SDS011;41619;42.816;23.226;2022-12-29T12:14:59;41.03;;;23.67;;
55314;SDS011;41619;42.816;23.226;2022-12-29T12:17:31;45.38;;;23.50;;
55314;SDS011;41619;42.816;23.226;2022-12-29T12:22:54;39.92;;;21.50;;
55314;SDS011;41619;42.816;23.226;2022-12-29T12:25:29;36.58;;;22.38;;
55314;SDS011;41619;42.816;23.226;2022-12-29T12:30:28;38.17;;;22.05;;
55314;SDS011;41619;42.816;23.226;2022-12-29T12:33:14;33.17;;;20.77;;
55314;SDS011;41619;42.816;23.226;2022-12-29T12:35:51;40.92;;;22.17;;
55314;SDS011;41619;42.816;23.226;2022-12-29T12:46:52;38.28;;;21.77;;
55314;SDS011;41619;42.816;23.226;2022-12-29T12:52:28;35.22;;;22.08;;
55314;SDS011;41619;42.816;23.226;2022-12-29T12:58:55;51.45;;;30.50;;
55314;SDS011;41619;42.816;23.226;2022-12-29T13:07:12;38.35;;;22.08;;
55314;SDS011;41619;42.816;23.226;2022-12-29T13:13:01;46.80;;;26.88;;
55314;SDS011;41619;42.816;23.226;2022-12-29T13:15:51;41.22;;;24.15;;
55314;SDS011;41619;42.816;23.226;2022-12-29T13:24:09;47.33;;;27.27;;
55314;SDS011;41619;42.816;23.226;2022-12-29T13:26:37;44.20;;;26.70;;
55314;SDS011;41619;42.816;23.226;2022-12-29T13:32:30;48.00;;;25.33;;
55314;SDS011;41619;42.816;23.226;2022-12-29T13:37:42;52.38;;;28.23;;
55314;SDS011;41619;42.816;23.226;2022-12-29T13:40:16;40.65;;;22.98;;
55314;SDS011;41619;42.816;23.226;2022-12-29T13:42:47;38.88;;;22.80;;
55314;SDS011;41619;42.816;23.226;2022-12-29T13:45:14;39.88;;;22.92;;
55314;SDS011;41619;42.816;23.226;2022-12-29T13:50:22;52.70;;;31.08;;
55314;SDS011;41619;42.816;23.226;2022-12-29T13:55:29;41.65;;;25.17;;
55314;SDS011;41619;42.816;23.226;2022-12-29T14:03:51;37.67;;;22.42;;
55314;SDS011;41619;42.816;23.226;2022-12-29T14:06:28;43.85;;;24.85;;
55314;SDS011;41619;42.816;23.226;2022-12-29T14:08:57;41.88;;;23.40;;
55314;SDS011;41619;42.816;23.226;2022-12-29T14:11:32;57.58;;;28.67;;
55314;SDS011;41619;42.816;23.226;2022-12-29T14:16:46;52.75;;;28.92;;
55314;SDS011;41619;42.816;23.226;2022-12-29T14:19:20;50.90;;;28.45;;
55314;SDS011;41619;42.816;23.226;2022-12-29T14:21:58;61.08;;;32.05;;
55314;SDS011;41619;42.816;23.226;2022-12-29T14:34:45;64.60;;;33.50;;
55314;SDS011;41619;42.816;23.226;2022-12-29T14:37:23;92.13;;;47.53;;
55314;SDS011;41619;42.816;23.226;2022-12-29T14:40:06;94.78;;;43.60;;
55314;SDS011;41619;42.816;23.226;2022-12-29T14:42:42;86.40;;;41.95;;
55314;SDS011;41619;42.816;23.226;2022-12-29T14:47:44;65.45;;;34.83;;
55314;SDS011;41619;42.816;23.226;2022-12-29T14:52:46;59.72;;;33.83;;
55314;SDS011;41619;42.816;23.226;2022-12-29T14:57:41;67.25;;;33.65;;
55314;SDS011;41619;42.816;23.226;2022-12-29T15:02:40;64.45;;;34.92;;
55314;SDS011;41619;42.816;23.226;2022-12-29T15:05:51;64.43;;;34.58;;
55314;SDS011;41619;42.816;23.226;2022-12-29T15:08:01;68.75;;;35.42;;
55314;SDS011;41619;42.816;23.226;2022-12-29T15:10:32;99.75;;;48.03;;
55314;SDS011;41619;42.816;23.226;2022-12-29T15:13:03;122.50;;;57.97;;
55314;SDS011;41619;42.816;23.226;2022-12-29T15:15:35;117.38;;;52.78;;
55314;SDS011;41619;42.816;23.226;2022-12-29T15:18:22;110.57;;;53.97;;
55314;SDS011;41619;42.816;23.226;2022-12-29T15:20:56;92.70;;;46.90;;
55314;SDS011;41619;42.816;23.226;2022-12-29T15:23:26;80.57;;;45.15;;
55314;SDS011;41619;42.816;23.226;2022-12-29T15:28:20;124.05;;;59.30;;
55314;SDS011;41619;42.816;23.226;2022-12-29T15:30:51;129.68;;;61.63;;
55314;SDS011;41619;42.816;23.226;2022-12-29T15:33:21;338.40;;;117.78;;
55314;SDS011;41619;42.816;23.226;2022-12-29T15:35:49;267.50;;;103.07;;
55314;SDS011;41619;42.816;23.226;2022-12-29T15:38:20;404.70;;;132.00;;
55314;SDS011;41619;42.816;23.226;2022-12-29T15:40:48;255.07;;;92.72;;
55314;SDS011;41619;42.816;23.226;2022-12-29T15:46:10;146.98;;;69.30;;
55314;SDS011;41619;42.816;23.226;2022-12-29T15:48:36;196.23;;;92.85;;
55314;SDS011;41619;42.816;23.226;2022-12-29T15:51:03;215.52;;;111.53;;
55314;SDS011;41619;42.816;23.226;2022-12-29T15:53:45;215.10;;;107.07;;
55314;SDS011;41619;42.816;23.226;2022-12-29T15:56:12;183.82;;;92.03;;
55314;SDS011;41619;42.816;23.226;2022-12-29T15:58:42;165.30;;;82.50;;
55314;SDS011;41619;42.816;23.226;2022-12-29T16:01:23;161.68;;;81.25;;
55314;SDS011;41619;42.816;23.226;2022-12-29T16:04:00;153.40;;;75.90;;
55314;SDS011;41619;42.816;23.226;2022-12-29T16:06:35;129.05;;;68.85;;
55314;SDS011;41619;42.816;23.226;2022-12-29T16:09:16;128.93;;;63.10;;
55314;SDS011;41619;42.816;23.226;2022-12-29T16:11:50;198.27;;;87.70;;
55314;SDS011;41619;42.816;23.226;2022-12-29T16:14:21;128.68;;;62.25;;
55314;SDS011;41619;42.816;23.226;2022-12-29T16:16:56;106.35;;;55.50;;
55314;SDS011;41619;42.816;23.226;2022-12-29T16:19:29;87.32;;;46.05;;
55314;SDS011;41619;42.816;23.226;2022-12-29T16:21:56;75.47;;;43.00;;
55314;SDS011;41619;42.816;23.226;2022-12-29T16:24:25;80.93;;;46.33;;
55314;SDS011;41619;42.816;23.226;2022-12-29T16:27:29;88.00;;;47.53;;
55314;SDS011;41619;42.816;23.226;2022-12-29T16:29:52;79.30;;;48.55;;
55314;SDS011;41619;42.816;23.226;2022-12-29T16:32:27;93.20;;;52.88;;
55314;SDS011;41619;42.816;23.226;2022-12-29T16:35:16;102.35;;;57.83;;
55314;SDS011;41619;42.816;23.226;2022-12-29T16:37:44;101.03;;;57.92;;
55314;SDS011;41619;42.816;23.226;2022-12-29T16:42:53;120.95;;;61.50;;
55314;SDS011;41619;42.816;23.226;2022-12-29T16:48:10;208.43;;;83.50;;